PWSweather.com
Personal Weather Stations
Station Observations
TXALLEN104
Watters Crossing, Allen, TX 75013

Watters CrossingAllen, TX 75013

Lat: 33.096, Lon: -96.697

Elevation: 672

Station Type: Davis Vantage Pro2 Plus

http://www.allenweather.com

Latest ConditionsUpdated 3:50:00 PM CDT Monday, Sep 23, 2019
Currently Today's Max Today's Min Today's Average
Temperature 94.9°F34.9°C 95.6°F35.3°C 78.2°F25.7°C 84.0°F28.9°C
Dew Point 75.0°F23.9°C 76.1°F24.5°C 72.2°F22.3°C 73.4°F23.0°C
Winds 3.0 mph SSE4.8 kmh SSE 3.0 mph -4.8 kmh - - 1.5 mph 2.4 kmh
Wind Gusts 8.0 mph12.9 kmh 10.0 mph16.1 kmh - -
Humidity 53% 83% 52% 72%
Pressure 29.89 in1012.2 mb 30.00 in1015.9 mb 29.89 in1012.2 mb -
Hour Temp Dew Point Humidity Winds Wind Gusts Pressure Precip Precip Rate Daily Precip Total
03:50 PM 94.9°F34.9°C 75.0°F23.9°C 53% 3.0 mph SSE4.8 kmh SSE 8.0 mph12.9 kmh 29.89 in1012.2 mb 0.00 in0.0 mm 0.00 in0.0 mm 0.00 in0.0 mm
03:45 PM 95.1°F35.1°C 75.8°F24.3°C 54% 2.0 mph WNW3.2 kmh WNW 7.0 mph11.3 kmh 29.89 in1012.2 mb 0.00 in0.0 mm 0.00 in0.0 mm 0.00 in0.0 mm
03:40 PM 95.0°F35.0°C 75.1°F23.9°C 53% 3.0 mph S4.8 kmh S 8.0 mph12.9 kmh 29.90 in1012.5 mb 0.00 in0.0 mm 0.00 in0.0 mm 0.00 in0.0 mm
03:35 PM 95.6°F35.3°C 75.1°F23.9°C 52% 2.0 mph SSE3.2 kmh SSE 6.0 mph9.7 kmh 29.90 in1012.5 mb 0.00 in0.0 mm 0.00 in0.0 mm 0.00 in0.0 mm
03:30 PM 94.8°F34.9°C 76.1°F24.5°C 55% 2.0 mph SSE3.2 kmh SSE 5.0 mph8.0 kmh 29.90 in1012.5 mb 0.00 in0.0 mm 0.00 in0.0 mm 0.00 in0.0 mm
03:25 PM 94.6°F34.8°C 74.2°F23.4°C 52% 1.0 mph SSE1.6 kmh SSE 5.0 mph8.0 kmh 29.90 in1012.5 mb 0.00 in0.0 mm 0.00 in0.0 mm 0.00 in0.0 mm
03:20 PM 94.4°F34.7°C 75.1°F23.9°C 54% 3.0 mph SSE4.8 kmh SSE 8.0 mph12.9 kmh 29.90 in1012.5 mb 0.00 in0.0 mm 0.00 in0.0 mm 0.00 in0.0 mm
03:15 PM 94.5°F34.7°C 75.8°F24.3°C 55% 3.0 mph SSW4.8 kmh SSW 8.0 mph12.9 kmh 29.90 in1012.5 mb 0.00 in0.0 mm 0.00 in0.0 mm 0.00 in0.0 mm
03:10 PM 95.3°F35.2°C 75.4°F24.1°C 53% 2.0 mph S3.2 kmh S 9.0 mph14.5 kmh 29.90 in1012.5 mb 0.00 in0.0 mm 0.00 in0.0 mm 0.00 in0.0 mm
03:05 PM 95.6°F35.3°C 75.1°F23.9°C 52% 2.0 mph S3.2 kmh S 7.0 mph11.3 kmh 29.90 in1012.5 mb 0.00 in0.0 mm 0.00 in0.0 mm 0.00 in0.0 mm
03:00 PM 94.2°F34.6°C 76.1°F24.5°C 56% 2.0 mph S3.2 kmh S 6.0 mph9.7 kmh 29.90 in1012.5 mb 0.00 in0.0 mm 0.00 in0.0 mm 0.00 in0.0 mm
02:55 PM 92.3°F33.5°C 75.3°F24.1°C 58% 2.0 mph SSW3.2 kmh SSW 4.0 mph6.4 kmh 29.91 in1012.9 mb 0.00 in0.0 mm 0.00 in0.0 mm 0.00 in0.0 mm
02:50 PM 92.6°F33.7°C 74.6°F23.7°C 56% 1.0 mph SSW1.6 kmh SSW 3.0 mph4.8 kmh 29.91 in1012.9 mb 0.00 in0.0 mm 0.00 in0.0 mm 0.00 in0.0 mm
02:45 PM 94.4°F34.7°C 75.1°F23.9°C 54% 2.0 mph SSW3.2 kmh SSW 4.0 mph6.4 kmh 29.91 in1012.9 mb 0.00 in0.0 mm 0.00 in0.0 mm 0.00 in0.0 mm
02:40 PM 94.2°F34.6°C 74.4°F23.6°C 53% 2.0 mph S3.2 kmh S 6.0 mph9.7 kmh 29.91 in1012.9 mb 0.00 in0.0 mm 0.00 in0.0 mm 0.00 in0.0 mm
02:35 PM 92.4°F33.6°C 74.9°F23.8°C 57% 1.0 mph S1.6 kmh S 2.0 mph3.2 kmh 29.92 in1013.2 mb 0.00 in0.0 mm 0.00 in0.0 mm 0.00 in0.0 mm
02:30 PM 92.4°F33.6°C 74.4°F23.6°C 56% 1.0 mph S1.6 kmh S 3.0 mph4.8 kmh 29.92 in1013.2 mb 0.00 in0.0 mm 0.00 in0.0 mm 0.00 in0.0 mm
02:25 PM 92.7°F33.7°C 73.6°F23.1°C 54% 2.0 mph S3.2 kmh S 4.0 mph6.4 kmh 29.92 in1013.2 mb 0.00 in0.0 mm 0.00 in0.0 mm 0.00 in0.0 mm
02:20 PM 92.0°F33.3°C 73.5°F23.1°C 55% 2.0 mph S3.2 kmh S 4.0 mph6.4 kmh 29.93 in1013.5 mb 0.00 in0.0 mm 0.00 in0.0 mm 0.00 in0.0 mm
02:15 PM 91.9°F33.3°C 73.9°F23.3°C 56% 1.0 mph S1.6 kmh S 4.0 mph6.4 kmh 29.93 in1013.5 mb 0.00 in0.0 mm 0.00 in0.0 mm 0.00 in0.0 mm
02:10 PM 92.4°F33.6°C 73.8°F23.2°C 55% 1.0 mph S1.6 kmh S 3.0 mph4.8 kmh 29.93 in1013.5 mb 0.00 in0.0 mm 0.00 in0.0 mm 0.00 in0.0 mm
02:05 PM 92.4°F33.6°C 73.8°F23.2°C 55% 1.0 mph S1.6 kmh S 3.0 mph4.8 kmh 29.94 in1013.9 mb 0.00 in0.0 mm 0.00 in0.0 mm 0.00 in0.0 mm
02:00 PM 93.0°F33.9°C 74.4°F23.6°C 55% 2.0 mph S3.2 kmh S 4.0 mph6.4 kmh 29.93 in1013.5 mb 0.00 in0.0 mm 0.00 in0.0 mm 0.00 in0.0 mm
01:55 PM 92.4°F33.6°C 74.4°F23.6°C 56% 1.0 mph S1.6 kmh S 3.0 mph4.8 kmh 29.94 in1013.9 mb 0.00 in0.0 mm 0.00 in0.0 mm 0.00 in0.0 mm
01:50 PM 92.8°F33.8°C 74.2°F23.4°C 55% 1.0 mph S1.6 kmh S 3.0 mph4.8 kmh 29.94 in1013.9 mb 0.00 in0.0 mm 0.00 in0.0 mm 0.00 in0.0 mm
01:45 PM 92.7°F33.7°C 74.1°F23.4°C 55% 2.0 mph S3.2 kmh S 4.0 mph6.4 kmh 29.95 in1014.2 mb 0.00 in0.0 mm 0.00 in0.0 mm 0.00 in0.0 mm
01:40 PM 92.9°F33.8°C 74.3°F23.5°C 55% 2.0 mph S3.2 kmh S 7.0 mph11.3 kmh 29.95 in1014.2 mb 0.00 in0.0 mm 0.00 in0.0 mm 0.00 in0.0 mm
01:35 PM 92.6°F33.7°C 74.6°F23.7°C 56% 1.0 mph S1.6 kmh S 2.0 mph3.2 kmh 29.95 in1014.2 mb 0.00 in0.0 mm 0.00 in0.0 mm 0.00 in0.0 mm
01:30 PM 91.5°F33.1°C 74.6°F23.7°C 58% 1.0 mph S1.6 kmh S 3.0 mph4.8 kmh 29.95 in1014.2 mb 0.00 in0.0 mm 0.00 in0.0 mm 0.00 in0.0 mm
01:25 PM 91.3°F32.9°C 73.9°F23.3°C 57% 1.0 mph S1.6 kmh S 4.0 mph6.4 kmh 29.95 in1014.2 mb 0.00 in0.0 mm 0.00 in0.0 mm 0.00 in0.0 mm
01:20 PM 91.8°F33.2°C 73.8°F23.2°C 56% 1.0 mph S1.6 kmh S 3.0 mph4.8 kmh 29.96 in1014.6 mb 0.00 in0.0 mm 0.00 in0.0 mm 0.00 in0.0 mm
01:15 PM 91.8°F33.2°C 73.8°F23.2°C 56% 2.0 mph S3.2 kmh S 6.0 mph9.7 kmh 29.96 in1014.6 mb 0.00 in0.0 mm 0.00 in0.0 mm 0.00 in0.0 mm
01:10 PM 92.4°F33.6°C 73.8°F23.2°C 55% 1.0 mph WNW1.6 kmh WNW 4.0 mph6.4 kmh 29.96 in1014.6 mb 0.00 in0.0 mm 0.00 in0.0 mm 0.00 in0.0 mm
01:05 PM 92.4°F33.6°C 73.8°F23.2°C 55% 2.0 mph S3.2 kmh S 6.0 mph9.7 kmh 29.96 in1014.6 mb 0.00 in0.0 mm 0.00 in0.0 mm 0.00 in0.0 mm
01:00 PM 91.3°F32.9°C 73.4°F23.0°C 56% 2.0 mph S3.2 kmh S 6.0 mph9.7 kmh 29.97 in1014.9 mb 0.00 in0.0 mm 0.00 in0.0 mm 0.00 in0.0 mm
12:55 PM 91.4°F33.0°C 75.0°F23.9°C 59% 2.0 mph S3.2 kmh S 6.0 mph9.7 kmh 29.97 in1014.9 mb 0.00 in0.0 mm 0.00 in0.0 mm 0.00 in0.0 mm
12:50 PM 91.9°F33.3°C 73.9°F23.3°C 56% 2.0 mph SW3.2 kmh SW 5.0 mph8.0 kmh 29.97 in1014.9 mb 0.00 in0.0 mm 0.00 in0.0 mm 0.00 in0.0 mm
12:45 PM 91.9°F33.3°C 75.5°F24.2°C 59% 2.0 mph S3.2 kmh S 5.0 mph8.0 kmh 29.97 in1014.9 mb 0.00 in0.0 mm 0.00 in0.0 mm 0.00 in0.0 mm
12:40 PM 91.1°F32.8°C 75.2°F24.0°C 60% 1.0 mph W1.6 kmh W 4.0 mph6.4 kmh 29.97 in1014.9 mb 0.00 in0.0 mm 0.00 in0.0 mm 0.00 in0.0 mm
12:35 PM 91.2°F32.9°C 74.8°F23.8°C 59% 1.0 mph S1.6 kmh S 5.0 mph8.0 kmh 29.98 in1015.2 mb 0.00 in0.0 mm 0.00 in0.0 mm 0.00 in0.0 mm
12:30 PM 91.2°F32.9°C 74.8°F23.8°C 59% 2.0 mph SSW3.2 kmh SSW 4.0 mph6.4 kmh 29.98 in1015.2 mb 0.00 in0.0 mm 0.00 in0.0 mm 0.00 in0.0 mm
12:25 PM 91.5°F33.1°C 75.1°F23.9°C 59% 1.0 mph S1.6 kmh S 4.0 mph6.4 kmh 29.98 in1015.2 mb 0.00 in0.0 mm 0.00 in0.0 mm 0.00 in0.0 mm
12:20 PM 90.6°F32.6°C 73.8°F23.2°C 58% 2.0 mph S3.2 kmh S 5.0 mph8.0 kmh 29.98 in1015.2 mb 0.00 in0.0 mm 0.00 in0.0 mm 0.00 in0.0 mm
12:15 PM 90.5°F32.5°C 73.7°F23.2°C 58% 1.0 mph S1.6 kmh S 7.0 mph11.3 kmh 29.98 in1015.2 mb 0.00 in0.0 mm 0.00 in0.0 mm 0.00 in0.0 mm
12:10 PM 90.5°F32.5°C 75.7°F24.3°C 62% 2.0 mph S3.2 kmh S 9.0 mph14.5 kmh 29.99 in1015.6 mb 0.00 in0.0 mm 0.00 in0.0 mm 0.00 in0.0 mm
12:05 PM 89.8°F32.1°C 74.0°F23.3°C 60% 1.0 mph S1.6 kmh S 2.0 mph3.2 kmh 29.98 in1015.2 mb 0.00 in0.0 mm 0.00 in0.0 mm 0.00 in0.0 mm
12:00 PM 88.7°F31.5°C 73.5°F23.1°C 61% 3.0 mph S4.8 kmh S 6.0 mph9.7 kmh 29.99 in1015.6 mb 0.00 in0.0 mm 0.00 in0.0 mm 0.00 in0.0 mm
11:55 AM 88.4°F31.3°C 73.7°F23.2°C 62% 1.0 mph WSW1.6 kmh WSW 3.0 mph4.8 kmh 29.99 in1015.6 mb 0.00 in0.0 mm 0.00 in0.0 mm 0.00 in0.0 mm
11:50 AM 89.2°F31.8°C 74.0°F23.3°C 61% 2.0 mph S3.2 kmh S 6.0 mph9.7 kmh 29.99 in1015.6 mb 0.00 in0.0 mm 0.00 in0.0 mm 0.00 in0.0 mm
11:45 AM 89.5°F31.9°C 73.7°F23.2°C 60% 2.0 mph SW3.2 kmh SW 7.0 mph11.3 kmh 29.99 in1015.6 mb 0.00 in0.0 mm 0.00 in0.0 mm 0.00 in0.0 mm
11:40 AM 89.6°F32.0°C 73.8°F23.2°C 60% 2.0 mph S3.2 kmh S 7.0 mph11.3 kmh 29.99 in1015.6 mb 0.00 in0.0 mm 0.00 in0.0 mm 0.00 in0.0 mm
11:35 AM 89.0°F31.7°C 73.8°F23.2°C 61% 1.0 mph S1.6 kmh S 3.0 mph4.8 kmh 29.99 in1015.6 mb 0.00 in0.0 mm 0.00 in0.0 mm 0.00 in0.0 mm
11:30 AM 88.8°F31.6°C 74.5°F23.6°C 63% 1.0 mph S1.6 kmh S 3.0 mph4.8 kmh 30.00 in1015.9 mb 0.00 in0.0 mm 0.00 in0.0 mm 0.00 in0.0 mm
11:25 AM 88.0°F31.1°C 74.3°F23.5°C 64% 2.0 mph S3.2 kmh S 6.0 mph9.7 kmh 30.00 in1015.9 mb 0.00 in0.0 mm 0.00 in0.0 mm 0.00 in0.0 mm
11:20 AM 87.3°F30.7°C 73.6°F23.1°C 64% 2.0 mph S3.2 kmh S 6.0 mph9.7 kmh 30.00 in1015.9 mb 0.00 in0.0 mm 0.00 in0.0 mm 0.00 in0.0 mm
11:15 AM 87.7°F30.9°C 73.5°F23.1°C 63% 2.0 mph S3.2 kmh S 6.0 mph9.7 kmh 30.00 in1015.9 mb 0.00 in0.0 mm 0.00 in0.0 mm 0.00 in0.0 mm
11:10 AM 87.9°F31.1°C 74.2°F23.4°C 64% 2.0 mph SSW3.2 kmh SSW 8.0 mph12.9 kmh 30.00 in1015.9 mb 0.00 in0.0 mm 0.00 in0.0 mm 0.00 in0.0 mm
11:05 AM 86.8°F30.4°C 74.5°F23.6°C 67% 2.0 mph NW3.2 kmh NW 5.0 mph8.0 kmh 30.00 in1015.9 mb 0.00 in0.0 mm 0.00 in0.0 mm 0.00 in0.0 mm
11:00 AM 86.5°F30.3°C 73.3°F22.9°C 65% 2.0 mph S3.2 kmh S 4.0 mph6.4 kmh 30.00 in1015.9 mb 0.00 in0.0 mm 0.00 in0.0 mm 0.00 in0.0 mm
10:55 AM 87.8°F31.0°C 74.1°F23.4°C 64% 2.0 mph S3.2 kmh S 5.0 mph8.0 kmh 30.00 in1015.9 mb 0.00 in0.0 mm 0.00 in0.0 mm 0.00 in0.0 mm
10:50 AM 87.3°F30.7°C 74.1°F23.4°C 65% 1.0 mph S1.6 kmh S 8.0 mph12.9 kmh 30.00 in1015.9 mb 0.00 in0.0 mm 0.00 in0.0 mm 0.00 in0.0 mm
10:45 AM 86.4°F30.2°C 74.1°F23.4°C 67% 1.0 mph S1.6 kmh S 4.0 mph6.4 kmh 30.00 in1015.9 mb 0.00 in0.0 mm 0.00 in0.0 mm 0.00 in0.0 mm
10:40 AM 86.4°F30.2°C 73.7°F23.2°C 66% 2.0 mph NW3.2 kmh NW 4.0 mph6.4 kmh 30.00 in1015.9 mb 0.00 in0.0 mm 0.00 in0.0 mm 0.00 in0.0 mm
10:35 AM 86.6°F30.3°C 74.3°F23.5°C 67% 2.0 mph SSW3.2 kmh SSW 4.0 mph6.4 kmh 30.00 in1015.9 mb 0.00 in0.0 mm 0.00 in0.0 mm 0.00 in0.0 mm
10:30 AM 85.7°F29.8°C 73.9°F23.3°C 68% 2.0 mph S3.2 kmh S 6.0 mph9.7 kmh 30.00 in1015.9 mb 0.00 in0.0 mm 0.00 in0.0 mm 0.00 in0.0 mm
10:25 AM 85.3°F29.6°C 73.9°F23.3°C 69% 2.0 mph W3.2 kmh W 4.0 mph6.4 kmh 30.00 in1015.9 mb 0.00 in0.0 mm 0.00 in0.0 mm 0.00 in0.0 mm
10:20 AM 85.2°F29.6°C 74.3°F23.5°C 70% 1.0 mph WSW1.6 kmh WSW 4.0 mph6.4 kmh 30.00 in1015.9 mb 0.00 in0.0 mm 0.00 in0.0 mm 0.00 in0.0 mm
10:15 AM 84.7°F29.3°C 73.4°F23.0°C 69% 1.0 mph W1.6 kmh W 3.0 mph4.8 kmh 30.00 in1015.9 mb 0.00 in0.0 mm 0.00 in0.0 mm 0.00 in0.0 mm
10:10 AM 84.5°F29.2°C 74.0°F23.3°C 71% 1.0 mph W1.6 kmh W 4.0 mph6.4 kmh 30.00 in1015.9 mb 0.00 in0.0 mm 0.00 in0.0 mm 0.00 in0.0 mm
10:05 AM 84.4°F29.1°C 73.9°F23.3°C 71% 1.0 mph S1.6 kmh S 4.0 mph6.4 kmh 30.00 in1015.9 mb 0.00 in0.0 mm 0.00 in0.0 mm 0.00 in0.0 mm
10:00 AM 84.3°F29.1°C 73.8°F23.2°C 71% 2.0 mph SSW3.2 kmh SSW 5.0 mph8.0 kmh 30.00 in1015.9 mb 0.00 in0.0 mm 0.00 in0.0 mm 0.00 in0.0 mm
09:55 AM 84.5°F29.2°C 74.5°F23.6°C 72% 2.0 mph SSE3.2 kmh SSE 7.0 mph11.3 kmh 29.99 in1015.6 mb 0.00 in0.0 mm 0.00 in0.0 mm 0.00 in0.0 mm
09:50 AM 83.8°F28.8°C 74.6°F23.7°C 74% 2.0 mph S3.2 kmh S 6.0 mph9.7 kmh 29.99 in1015.6 mb 0.00 in0.0 mm 0.00 in0.0 mm 0.00 in0.0 mm
09:45 AM 83.4°F28.6°C 74.2°F23.4°C 74% 2.0 mph S3.2 kmh S 7.0 mph11.3 kmh 30.00 in1015.9 mb 0.00 in0.0 mm 0.00 in0.0 mm 0.00 in0.0 mm
09:40 AM 82.8°F28.2°C 74.4°F23.6°C 76% 2.0 mph SSE3.2 kmh SSE 5.0 mph8.0 kmh 30.00 in1015.9 mb 0.00 in0.0 mm 0.00 in0.0 mm 0.00 in0.0 mm
09:35 AM 82.5°F28.1°C 74.1°F23.4°C 76% 3.0 mph SSE4.8 kmh SSE 6.0 mph9.7 kmh 30.00 in1015.9 mb 0.00 in0.0 mm 0.00 in0.0 mm 0.00 in0.0 mm
09:30 AM 82.0°F27.8°C 74.1°F23.4°C 77% 2.0 mph SSE3.2 kmh SSE 5.0 mph8.0 kmh 30.00 in1015.9 mb 0.00 in0.0 mm 0.00 in0.0 mm 0.00 in0.0 mm
09:25 AM 81.5°F27.5°C 74.0°F23.3°C 78% 1.0 mph SSE1.6 kmh SSE 4.0 mph6.4 kmh 30.00 in1015.9 mb 0.00 in0.0 mm 0.00 in0.0 mm 0.00 in0.0 mm
09:20 AM 81.5°F27.5°C 74.0°F23.3°C 78% 1.0 mph SSE1.6 kmh SSE 5.0 mph8.0 kmh 30.00 in1015.9 mb 0.00 in0.0 mm 0.00 in0.0 mm 0.00 in0.0 mm
09:15 AM 81.2°F27.3°C 74.0°F23.3°C 79% 1.0 mph SSW1.6 kmh SSW 4.0 mph6.4 kmh 30.00 in1015.9 mb 0.00 in0.0 mm 0.00 in0.0 mm 0.00 in0.0 mm
09:10 AM 80.8°F27.1°C 73.7°F23.2°C 79% 1.0 mph S1.6 kmh S 6.0 mph9.7 kmh 30.00 in1015.9 mb 0.00 in0.0 mm 0.00 in0.0 mm 0.00 in0.0 mm
09:05 AM 80.4°F26.9°C 73.6°F23.1°C 80% 1.0 mph S1.6 kmh S 6.0 mph9.7 kmh 30.00 in1015.9 mb 0.00 in0.0 mm 0.00 in0.0 mm 0.00 in0.0 mm
09:00 AM 80.2°F26.8°C 73.5°F23.1°C 80% 1.0 mph S1.6 kmh S 3.0 mph4.8 kmh 29.99 in1015.6 mb 0.00 in0.0 mm 0.00 in0.0 mm 0.00 in0.0 mm
08:55 AM 80.1°F26.7°C 73.7°F23.2°C 81% 1.0 mph S1.6 kmh S 3.0 mph4.8 kmh 29.99 in1015.6 mb 0.00 in0.0 mm 0.00 in0.0 mm 0.00 in0.0 mm
08:50 AM 79.6°F26.4°C 73.6°F23.1°C 82% Calm Calm 1.0 mph1.6 kmh 30.00 in1015.9 mb 0.00 in0.0 mm 0.00 in0.0 mm 0.00 in0.0 mm
08:45 AM 79.3°F26.3°C 73.3°F22.9°C 82% Calm Calm 2.0 mph3.2 kmh 29.99 in1015.6 mb 0.00 in0.0 mm 0.00 in0.0 mm 0.00 in0.0 mm
08:40 AM 79.1°F26.2°C 73.5°F23.1°C 83% 1.0 mph S1.6 kmh S 3.0 mph4.8 kmh 29.99 in1015.6 mb 0.00 in0.0 mm 0.00 in0.0 mm 0.00 in0.0 mm
08:35 AM 79.1°F26.2°C 73.5°F23.1°C 83% 1.0 mph S1.6 kmh S 2.0 mph3.2 kmh 29.99 in1015.6 mb 0.00 in0.0 mm 0.00 in0.0 mm 0.00 in0.0 mm
08:30 AM 79.0°F26.1°C 73.4°F23.0°C 83% 1.0 mph S1.6 kmh S 2.0 mph3.2 kmh 29.99 in1015.6 mb 0.00 in0.0 mm 0.00 in0.0 mm 0.00 in0.0 mm
08:25 AM 78.9°F26.1°C 73.3°F22.9°C 83% 1.0 mph S1.6 kmh S 3.0 mph4.8 kmh 29.99 in1015.6 mb 0.00 in0.0 mm 0.00 in0.0 mm 0.00 in0.0 mm
08:20 AM 78.8°F26.0°C 73.2°F22.9°C 83% 1.0 mph S1.6 kmh S 3.0 mph4.8 kmh 29.99 in1015.6 mb 0.00 in0.0 mm 0.00 in0.0 mm 0.00 in0.0 mm
08:15 AM 78.8°F26.0°C 73.2°F22.9°C 83% 1.0 mph S1.6 kmh S 2.0 mph3.2 kmh 29.99 in1015.6 mb 0.00 in0.0 mm 0.00 in0.0 mm 0.00 in0.0 mm
08:10 AM 78.8°F26.0°C 73.2°F22.9°C 83% Calm Calm 2.0 mph3.2 kmh 29.98 in1015.2 mb 0.00 in0.0 mm 0.00 in0.0 mm 0.00 in0.0 mm
08:05 AM 78.6°F25.9°C 73.0°F22.8°C 83% 1.0 mph S1.6 kmh S 2.0 mph3.2 kmh 29.98 in1015.2 mb 0.00 in0.0 mm 0.00 in0.0 mm 0.00 in0.0 mm
08:00 AM 78.4°F25.8°C 72.8°F22.7°C 83% Calm Calm 2.0 mph3.2 kmh 29.99 in1015.6 mb 0.00 in0.0 mm 0.00 in0.0 mm 0.00 in0.0 mm
07:55 AM 78.5°F25.8°C 72.9°F22.7°C 83% Calm Calm 1.0 mph1.6 kmh 29.99 in1015.6 mb 0.00 in0.0 mm 0.00 in0.0 mm 0.00 in0.0 mm
07:50 AM 78.5°F25.8°C 72.9°F22.7°C 83% 1.0 mph S1.6 kmh S 3.0 mph4.8 kmh 29.99 in1015.6 mb 0.00 in0.0 mm 0.00 in0.0 mm 0.00 in0.0 mm
07:45 AM 78.5°F25.8°C 72.9°F22.7°C 83% Calm Calm 2.0 mph3.2 kmh 29.98 in1015.2 mb 0.00 in0.0 mm 0.00 in0.0 mm 0.00 in0.0 mm
07:40 AM 78.4°F25.8°C 72.8°F22.7°C 83% Calm Calm 2.0 mph3.2 kmh 29.98 in1015.2 mb 0.00 in0.0 mm 0.00 in0.0 mm 0.00 in0.0 mm
07:35 AM 78.3°F25.7°C 72.7°F22.6°C 83% Calm Calm 1.0 mph1.6 kmh 29.98 in1015.2 mb 0.00 in0.0 mm 0.00 in0.0 mm 0.00 in0.0 mm
07:30 AM 78.4°F25.8°C 72.8°F22.7°C 83% Calm Calm 1.0 mph1.6 kmh 29.98 in1015.2 mb 0.00 in0.0 mm 0.00 in0.0 mm 0.00 in0.0 mm
07:25 AM 78.3°F25.7°C 72.7°F22.6°C 83% Calm Calm 2.0 mph3.2 kmh 29.98 in1015.2 mb 0.00 in0.0 mm 0.00 in0.0 mm 0.00 in0.0 mm
07:20 AM 78.3°F25.7°C 72.7°F22.6°C 83% Calm Calm -- 29.98 in1015.2 mb 0.00 in0.0 mm 0.00 in0.0 mm 0.00 in0.0 mm
07:15 AM 78.3°F25.7°C 72.7°F22.6°C 83% Calm Calm -- 29.98 in1015.2 mb 0.00 in0.0 mm 0.00 in0.0 mm 0.00 in0.0 mm
07:10 AM 78.2°F25.7°C 72.6°F22.6°C 83% Calm Calm -- 29.98 in1015.2 mb 0.00 in0.0 mm 0.00 in0.0 mm 0.00 in0.0 mm
07:05 AM 78.2°F25.7°C 72.6°F22.6°C 83% Calm Calm 1.0 mph1.6 kmh 29.98 in1015.2 mb 0.00 in0.0 mm 0.00 in0.0 mm 0.00 in0.0 mm
07:00 AM 78.2°F25.7°C 72.6°F22.6°C 83% Calm Calm 1.0 mph1.6 kmh 29.98 in1015.2 mb 0.00 in0.0 mm 0.00 in0.0 mm 0.00 in0.0 mm
06:55 AM 78.3°F25.7°C 72.7°F22.6°C 83% Calm Calm -- 29.97 in1014.9 mb 0.00 in0.0 mm 0.00 in0.0 mm 0.00 in0.0 mm
06:50 AM 78.3°F25.7°C 72.7°F22.6°C 83% Calm Calm -- 29.97 in1014.9 mb 0.00 in0.0 mm 0.00 in0.0 mm 0.00 in0.0 mm
06:45 AM 78.4°F25.8°C 72.4°F22.4°C 82% Calm Calm -- 29.97 in1014.9 mb 0.00 in0.0 mm 0.00 in0.0 mm 0.00 in0.0 mm
06:40 AM 78.6°F25.9°C 72.6°F22.6°C 82% Calm Calm 1.0 mph1.6 kmh 29.97 in1014.9 mb 0.00 in0.0 mm 0.00 in0.0 mm 0.00 in0.0 mm
06:35 AM 78.7°F25.9°C 72.7°F22.6°C 82% Calm Calm 2.0 mph3.2 kmh 29.96 in1014.6 mb 0.00 in0.0 mm 0.00 in0.0 mm 0.00 in0.0 mm
06:30 AM 78.9°F26.1°C 72.9°F22.7°C 82% Calm Calm 1.0 mph1.6 kmh 29.96 in1014.6 mb 0.00 in0.0 mm 0.00 in0.0 mm 0.00 in0.0 mm
06:25 AM 78.9°F26.1°C 72.9°F22.7°C 82% 1.0 mph S1.6 kmh S 3.0 mph4.8 kmh 29.96 in1014.6 mb 0.00 in0.0 mm 0.00 in0.0 mm 0.00 in0.0 mm
06:20 AM 78.8°F26.0°C 72.8°F22.7°C 82% 1.0 mph S1.6 kmh S 3.0 mph4.8 kmh 29.96 in1014.6 mb 0.00 in0.0 mm 0.00 in0.0 mm 0.00 in0.0 mm
06:15 AM 78.9°F26.1°C 72.6°F22.6°C 81% 1.0 mph S1.6 kmh S 3.0 mph4.8 kmh 29.96 in1014.6 mb 0.00 in0.0 mm 0.00 in0.0 mm 0.00 in0.0 mm
06:10 AM 78.9°F26.1°C 72.6°F22.6°C 81% Calm Calm 1.0 mph1.6 kmh 29.96 in1014.6 mb 0.00 in0.0 mm 0.00 in0.0 mm 0.00 in0.0 mm
06:05 AM 78.9°F26.1°C 72.6°F22.6°C 81% Calm Calm 3.0 mph4.8 kmh 29.95 in1014.2 mb 0.00 in0.0 mm 0.00 in0.0 mm 0.00 in0.0 mm
06:00 AM 78.7°F25.9°C 72.7°F22.6°C 82% 1.0 mph S1.6 kmh S 2.0 mph3.2 kmh 29.95 in1014.2 mb 0.00 in0.0 mm 0.00 in0.0 mm 0.00 in0.0 mm
05:55 AM 78.8°F26.0°C 72.5°F22.5°C 81% 1.0 mph S1.6 kmh S 3.0 mph4.8 kmh 29.95 in1014.2 mb 0.00 in0.0 mm 0.00 in0.0 mm 0.00 in0.0 mm
05:50 AM 78.8°F26.0°C 72.5°F22.5°C 81% Calm Calm 1.0 mph1.6 kmh 29.95 in1014.2 mb 0.00 in0.0 mm 0.00 in0.0 mm 0.00 in0.0 mm
05:45 AM 78.8°F26.0°C 72.5°F22.5°C 81% 1.0 mph S1.6 kmh S 3.0 mph4.8 kmh 29.95 in1014.2 mb 0.00 in0.0 mm 0.00 in0.0 mm 0.00 in0.0 mm
05:40 AM 78.9°F26.1°C 72.6°F22.6°C 81% 1.0 mph S1.6 kmh S 2.0 mph3.2 kmh 29.95 in1014.2 mb 0.00 in0.0 mm 0.00 in0.0 mm 0.00 in0.0 mm
05:35 AM 78.9°F26.1°C 72.6°F22.6°C 81% Calm Calm 2.0 mph3.2 kmh 29.95 in1014.2 mb 0.00 in0.0 mm 0.00 in0.0 mm 0.00 in0.0 mm
05:30 AM 79.0°F26.1°C 72.3°F22.4°C 80% 1.0 mph S1.6 kmh S 3.0 mph4.8 kmh 29.95 in1014.2 mb 0.00 in0.0 mm 0.00 in0.0 mm 0.00 in0.0 mm
05:25 AM 79.1°F26.2°C 72.4°F22.4°C 80% 1.0 mph S1.6 kmh S 3.0 mph4.8 kmh 29.95 in1014.2 mb 0.00 in0.0 mm 0.00 in0.0 mm 0.00 in0.0 mm
05:20 AM 79.2°F26.2°C 72.5°F22.5°C 80% 1.0 mph S1.6 kmh S 3.0 mph4.8 kmh 29.95 in1014.2 mb 0.00 in0.0 mm 0.00 in0.0 mm 0.00 in0.0 mm
05:15 AM 79.3°F26.3°C 72.6°F22.6°C 80% 1.0 mph S1.6 kmh S 2.0 mph3.2 kmh 29.95 in1014.2 mb 0.00 in0.0 mm 0.00 in0.0 mm 0.00 in0.0 mm
05:10 AM 79.3°F26.3°C 72.6°F22.6°C 80% 1.0 mph SSW1.6 kmh SSW 5.0 mph8.0 kmh 29.95 in1014.2 mb 0.00 in0.0 mm 0.00 in0.0 mm 0.00 in0.0 mm
05:05 AM 79.4°F26.3°C 72.7°F22.6°C 80% 1.0 mph SSW1.6 kmh SSW 2.0 mph3.2 kmh 29.94 in1013.9 mb 0.00 in0.0 mm 0.00 in0.0 mm 0.00 in0.0 mm
05:00 AM 79.5°F26.4°C 72.8°F22.7°C 80% 1.0 mph SSW1.6 kmh SSW 5.0 mph8.0 kmh 29.94 in1013.9 mb 0.00 in0.0 mm 0.00 in0.0 mm 0.00 in0.0 mm
04:55 AM 79.5°F26.4°C 72.8°F22.7°C 80% 1.0 mph SSW1.6 kmh SSW 3.0 mph4.8 kmh 29.94 in1013.9 mb 0.00 in0.0 mm 0.00 in0.0 mm 0.00 in0.0 mm
04:50 AM 79.4°F26.3°C 72.7°F22.6°C 80% 1.0 mph SSW1.6 kmh SSW 3.0 mph4.8 kmh 29.94 in1013.9 mb 0.00 in0.0 mm 0.00 in0.0 mm 0.00 in0.0 mm
04:45 AM 79.5°F26.4°C 72.8°F22.7°C 80% 1.0 mph SSW1.6 kmh SSW 2.0 mph3.2 kmh 29.94 in1013.9 mb 0.00 in0.0 mm 0.00 in0.0 mm 0.00 in0.0 mm
04:40 AM 79.5°F26.4°C 72.8°F22.7°C 80% 1.0 mph SSW1.6 kmh SSW 2.0 mph3.2 kmh 29.94 in1013.9 mb 0.00 in0.0 mm 0.00 in0.0 mm 0.00 in0.0 mm
04:35 AM 79.5°F26.4°C 72.8°F22.7°C 80% 1.0 mph SSW1.6 kmh SSW 5.0 mph8.0 kmh 29.94 in1013.9 mb 0.00 in0.0 mm 0.00 in0.0 mm 0.00 in0.0 mm
04:30 AM 79.6°F26.4°C 72.5°F22.5°C 79% 1.0 mph SSW1.6 kmh SSW 4.0 mph6.4 kmh 29.94 in1013.9 mb 0.00 in0.0 mm 0.00 in0.0 mm 0.00 in0.0 mm
04:25 AM 79.5°F26.4°C 72.4°F22.4°C 79% 2.0 mph S3.2 kmh S 5.0 mph8.0 kmh 29.93 in1013.5 mb 0.00 in0.0 mm 0.00 in0.0 mm 0.00 in0.0 mm
04:20 AM 79.5°F26.4°C 72.4°F22.4°C 79% 3.0 mph S4.8 kmh S 7.0 mph11.3 kmh 29.93 in1013.5 mb 0.00 in0.0 mm 0.00 in0.0 mm 0.00 in0.0 mm
04:15 AM 79.5°F26.4°C 72.4°F22.4°C 79% 2.0 mph S3.2 kmh S 6.0 mph9.7 kmh 29.93 in1013.5 mb 0.00 in0.0 mm 0.00 in0.0 mm 0.00 in0.0 mm
04:10 AM 79.5°F26.4°C 72.4°F22.4°C 79% 2.0 mph S3.2 kmh S 8.0 mph12.9 kmh 29.93 in1013.5 mb 0.00 in0.0 mm 0.00 in0.0 mm 0.00 in0.0 mm
04:05 AM 79.5°F26.4°C 72.4°F22.4°C 79% 1.0 mph S1.6 kmh S 5.0 mph8.0 kmh 29.93 in1013.5 mb 0.00 in0.0 mm 0.00 in0.0 mm 0.00 in0.0 mm
04:00 AM 79.5°F26.4°C 72.4°F22.4°C 79% 1.0 mph SSW1.6 kmh SSW 6.0 mph9.7 kmh 29.93 in1013.5 mb 0.00 in0.0 mm 0.00 in0.0 mm 0.00 in0.0 mm
03:55 AM 79.4°F26.3°C 72.3°F22.4°C 79% 2.0 mph SSE3.2 kmh SSE 8.0 mph12.9 kmh 29.93 in1013.5 mb 0.00 in0.0 mm 0.00 in0.0 mm 0.00 in0.0 mm
03:50 AM 79.5°F26.4°C 72.4°F22.4°C 79% 2.0 mph SW3.2 kmh SW 5.0 mph8.0 kmh 29.93 in1013.5 mb 0.00 in0.0 mm 0.00 in0.0 mm 0.00 in0.0 mm
03:45 AM 79.7°F26.5°C 72.6°F22.6°C 79% 1.0 mph S1.6 kmh S 5.0 mph8.0 kmh 29.93 in1013.5 mb 0.00 in0.0 mm 0.00 in0.0 mm 0.00 in0.0 mm
03:40 AM 79.7°F26.5°C 72.6°F22.6°C 79% 3.0 mph SSE4.8 kmh SSE 8.0 mph12.9 kmh 29.93 in1013.5 mb 0.00 in0.0 mm 0.00 in0.0 mm 0.00 in0.0 mm
03:35 AM 79.6°F26.4°C 72.5°F22.5°C 79% 1.0 mph S1.6 kmh S 3.0 mph4.8 kmh 29.93 in1013.5 mb 0.00 in0.0 mm 0.00 in0.0 mm 0.00 in0.0 mm
03:30 AM 79.8°F26.6°C 72.7°F22.6°C 79% 2.0 mph S3.2 kmh S 5.0 mph8.0 kmh 29.93 in1013.5 mb 0.00 in0.0 mm 0.00 in0.0 mm 0.00 in0.0 mm
03:25 AM 79.9°F26.6°C 72.4°F22.4°C 78% 3.0 mph S4.8 kmh S 10.0 mph16.1 kmh 29.93 in1013.5 mb 0.00 in0.0 mm 0.00 in0.0 mm 0.00 in0.0 mm
03:20 AM 79.9°F26.6°C 72.4°F22.4°C 78% 2.0 mph S3.2 kmh S 6.0 mph9.7 kmh 29.93 in1013.5 mb 0.00 in0.0 mm 0.00 in0.0 mm 0.00 in0.0 mm
03:15 AM 79.9°F26.6°C 72.4°F22.4°C 78% 1.0 mph W1.6 kmh W 4.0 mph6.4 kmh 29.93 in1013.5 mb 0.00 in0.0 mm 0.00 in0.0 mm 0.00 in0.0 mm
03:10 AM 79.9°F26.6°C 72.4°F22.4°C 78% 2.0 mph S3.2 kmh S 8.0 mph12.9 kmh 29.93 in1013.5 mb 0.00 in0.0 mm 0.00 in0.0 mm 0.00 in0.0 mm
03:05 AM 80.1°F26.7°C 72.6°F22.6°C 78% 2.0 mph S3.2 kmh S 6.0 mph9.7 kmh 29.93 in1013.5 mb 0.00 in0.0 mm 0.00 in0.0 mm 0.00 in0.0 mm
03:00 AM 80.1°F26.7°C 72.6°F22.6°C 78% 3.0 mph S4.8 kmh S 9.0 mph14.5 kmh 29.93 in1013.5 mb 0.00 in0.0 mm 0.00 in0.0 mm 0.00 in0.0 mm
02:55 AM 80.2°F26.8°C 72.7°F22.6°C 78% 2.0 mph S3.2 kmh S 6.0 mph9.7 kmh 29.93 in1013.5 mb 0.00 in0.0 mm 0.00 in0.0 mm 0.00 in0.0 mm
02:50 AM 80.3°F26.8°C 72.4°F22.4°C 77% 2.0 mph S3.2 kmh S 7.0 mph11.3 kmh 29.93 in1013.5 mb 0.00 in0.0 mm 0.00 in0.0 mm 0.00 in0.0 mm
02:45 AM 80.3°F26.8°C 72.4°F22.4°C 77% 3.0 mph SSW4.8 kmh SSW 8.0 mph12.9 kmh 29.93 in1013.5 mb 0.00 in0.0 mm 0.00 in0.0 mm 0.00 in0.0 mm
02:40 AM 80.4°F26.9°C 72.5°F22.5°C 77% 3.0 mph S4.8 kmh S 7.0 mph11.3 kmh 29.93 in1013.5 mb 0.00 in0.0 mm 0.00 in0.0 mm 0.00 in0.0 mm
02:35 AM 80.4°F26.9°C 72.5°F22.5°C 77% 2.0 mph S3.2 kmh S 5.0 mph8.0 kmh 29.93 in1013.5 mb 0.00 in0.0 mm 0.00 in0.0 mm 0.00 in0.0 mm
02:30 AM 80.5°F26.9°C 72.6°F22.6°C 77% 2.0 mph SSE3.2 kmh SSE 7.0 mph11.3 kmh 29.93 in1013.5 mb 0.00 in0.0 mm 0.00 in0.0 mm 0.00 in0.0 mm
02:25 AM 80.6°F27.0°C 72.7°F22.6°C 77% 2.0 mph S3.2 kmh S 5.0 mph8.0 kmh 29.93 in1013.5 mb 0.00 in0.0 mm 0.00 in0.0 mm 0.00 in0.0 mm
02:20 AM 80.7°F27.1°C 72.8°F22.7°C 77% 3.0 mph S4.8 kmh S 8.0 mph12.9 kmh 29.93 in1013.5 mb 0.00 in0.0 mm 0.00 in0.0 mm 0.00 in0.0 mm
02:15 AM 80.7°F27.1°C 72.8°F22.7°C 77% 2.0 mph SSW3.2 kmh SSW 6.0 mph9.7 kmh 29.93 in1013.5 mb 0.00 in0.0 mm 0.00 in0.0 mm 0.00 in0.0 mm
02:10 AM 80.7°F27.1°C 72.8°F22.7°C 77% 1.0 mph SSW1.6 kmh SSW 5.0 mph8.0 kmh 29.93 in1013.5 mb 0.00 in0.0 mm 0.00 in0.0 mm 0.00 in0.0 mm
02:05 AM 80.7°F27.1°C 72.8°F22.7°C 77% 2.0 mph S3.2 kmh S 6.0 mph9.7 kmh 29.93 in1013.5 mb 0.00 in0.0 mm 0.00 in0.0 mm 0.00 in0.0 mm
02:00 AM 80.8°F27.1°C 72.9°F22.7°C 77% 2.0 mph SSW3.2 kmh SSW 7.0 mph11.3 kmh 29.93 in1013.5 mb 0.00 in0.0 mm 0.00 in0.0 mm 0.00 in0.0 mm
01:55 AM 80.9°F27.2°C 72.6°F22.6°C 76% 2.0 mph S3.2 kmh S 6.0 mph9.7 kmh 29.93 in1013.5 mb 0.00 in0.0 mm 0.00 in0.0 mm 0.00 in0.0 mm
01:50 AM 81.0°F27.2°C 72.7°F22.6°C 76% 3.0 mph S4.8 kmh S 7.0 mph11.3 kmh 29.93 in1013.5 mb 0.00 in0.0 mm 0.00 in0.0 mm 0.00 in0.0 mm
01:45 AM 81.0°F27.2°C 72.7°F22.6°C 76% 2.0 mph S3.2 kmh S 9.0 mph14.5 kmh 29.93 in1013.5 mb 0.00 in0.0 mm 0.00 in0.0 mm 0.00 in0.0 mm
01:40 AM 81.2°F27.3°C 72.9°F22.7°C 76% 3.0 mph S4.8 kmh S 9.0 mph14.5 kmh 29.93 in1013.5 mb 0.00 in0.0 mm 0.00 in0.0 mm 0.00 in0.0 mm
01:35 AM 81.2°F27.3°C 72.9°F22.7°C 76% 3.0 mph S4.8 kmh S 7.0 mph11.3 kmh 29.93 in1013.5 mb 0.00 in0.0 mm 0.00 in0.0 mm 0.00 in0.0 mm
01:30 AM 81.2°F27.3°C 72.9°F22.7°C 76% 2.0 mph S3.2 kmh S 7.0 mph11.3 kmh 29.93 in1013.5 mb 0.00 in0.0 mm 0.00 in0.0 mm 0.00 in0.0 mm
01:25 AM 81.3°F27.4°C 72.6°F22.6°C 75% 2.0 mph S3.2 kmh S 6.0 mph9.7 kmh 29.93 in1013.5 mb 0.00 in0.0 mm 0.00 in0.0 mm 0.00 in0.0 mm
01:20 AM 81.4°F27.4°C 72.7°F22.6°C 75% 2.0 mph S3.2 kmh S 10.0 mph16.1 kmh 29.93 in1013.5 mb 0.00 in0.0 mm 0.00 in0.0 mm 0.00 in0.0 mm
01:15 AM 81.4°F27.4°C 72.7°F22.6°C 75% 3.0 mph SSE4.8 kmh SSE 8.0 mph12.9 kmh 29.93 in1013.5 mb 0.00 in0.0 mm 0.00 in0.0 mm 0.00 in0.0 mm
01:10 AM 81.5°F27.5°C 72.8°F22.7°C 75% 2.0 mph S3.2 kmh S 6.0 mph9.7 kmh 29.93 in1013.5 mb 0.00 in0.0 mm 0.00 in0.0 mm 0.00 in0.0 mm
01:05 AM 81.5°F27.5°C 72.8°F22.7°C 75% 3.0 mph S4.8 kmh S 9.0 mph14.5 kmh 29.93 in1013.5 mb 0.00 in0.0 mm 0.00 in0.0 mm 0.00 in0.0 mm
01:00 AM 81.5°F27.5°C 72.8°F22.7°C 75% 2.0 mph SSW3.2 kmh SSW 7.0 mph11.3 kmh 29.93 in1013.5 mb 0.00 in0.0 mm 0.00 in0.0 mm 0.00 in0.0 mm
12:55 AM 81.5°F27.5°C 72.8°F22.7°C 75% 2.0 mph SSW3.2 kmh SSW 7.0 mph11.3 kmh 29.93 in1013.5 mb 0.00 in0.0 mm 0.00 in0.0 mm 0.00 in0.0 mm
12:50 AM 81.5°F27.5°C 72.4°F22.4°C 74% 2.0 mph SSE3.2 kmh SSE 7.0 mph11.3 kmh 29.93 in1013.5 mb 0.00 in0.0 mm 0.00 in0.0 mm 0.00 in0.0 mm
12:45 AM 81.6°F27.6°C 72.5°F22.5°C 74% 2.0 mph S3.2 kmh S 6.0 mph9.7 kmh 29.93 in1013.5 mb 0.00 in0.0 mm 0.00 in0.0 mm 0.00 in0.0 mm
12:40 AM 81.7°F27.6°C 72.6°F22.6°C 74% 1.0 mph SSW1.6 kmh SSW 4.0 mph6.4 kmh 29.93 in1013.5 mb 0.00 in0.0 mm 0.00 in0.0 mm 0.00 in0.0 mm
12:35 AM 81.8°F27.7°C 72.7°F22.6°C 74% 2.0 mph SSW3.2 kmh SSW 4.0 mph6.4 kmh 29.94 in1013.9 mb 0.00 in0.0 mm 0.00 in0.0 mm 0.00 in0.0 mm
12:30 AM 81.8°F27.7°C 72.3°F22.4°C 73% 2.0 mph S3.2 kmh S 5.0 mph8.0 kmh 29.94 in1013.9 mb 0.00 in0.0 mm 0.00 in0.0 mm 0.00 in0.0 mm
12:25 AM 81.9°F27.7°C 72.4°F22.4°C 73% 2.0 mph S3.2 kmh S 7.0 mph11.3 kmh 29.93 in1013.5 mb 0.00 in0.0 mm 0.00 in0.0 mm 0.00 in0.0 mm
12:20 AM 82.0°F27.8°C 72.5°F22.5°C 73% 2.0 mph S3.2 kmh S 9.0 mph14.5 kmh 29.93 in1013.5 mb 0.00 in0.0 mm 0.00 in0.0 mm 0.00 in0.0 mm
12:15 AM 82.1°F27.8°C 72.2°F22.3°C 72% 2.0 mph S3.2 kmh S 5.0 mph8.0 kmh 29.93 in1013.5 mb 0.00 in0.0 mm 0.00 in0.0 mm 0.00 in0.0 mm
12:10 AM 82.2°F27.9°C 72.3°F22.4°C 72% 3.0 mph S4.8 kmh S 5.0 mph8.0 kmh 29.93 in1013.5 mb 0.00 in0.0 mm 0.00 in0.0 mm 0.00 in0.0 mm
12:05 AM 82.3°F27.9°C 72.3°F22.4°C 72% 2.0 mph S3.2 kmh S 4.0 mph6.4 kmh 29.93 in1013.5 mb 0.00 in0.0 mm 0.00 in0.0 mm 0.00 in0.0 mm
12:00 AM 82.4°F28.0°C 72.4°F22.4°C 72% 3.0 mph S4.8 kmh S 9.0 mph14.5 kmh 29.93 in1013.5 mb 0.00 in0.0 mm 0.00 in0.0 mm 0.00 in0.0 mm